createdAt,value
2019-04-21T00:01:34.669Z,98659.56
2019-04-21T00:04:09.827Z,98653.88
2019-04-21T00:06:48.369Z,98663.59
2019-04-21T00:09:30.552Z,98652.38
2019-04-21T00:11:59.858Z,98654.53
2019-04-21T00:14:18.403Z,98651.91
2019-04-21T00:16:45.453Z,98655.89
2019-04-21T00:19:28.104Z,98646.73
2019-04-21T00:22:05.971Z,98636.80
2019-04-21T00:24:41.224Z,98632.61
2019-04-21T00:27:15.984Z,98638.16
2019-04-21T00:29:48.242Z,98635.41
2019-04-21T00:32:16.746Z,98627.47
2019-04-21T00:34:34.163Z,98628.48
2019-04-21T00:37:16.878Z,98628.87
2019-04-21T00:40:01.929Z,98629.60
2019-04-21T00:42:25.679Z,98619.27
2019-04-21T00:44:56.628Z,98622.36
2019-04-21T00:47:30.615Z,98625.52
2019-04-21T00:50:05.054Z,98624.72
2019-04-21T00:55:39.455Z,98620.08
2019-04-21T00:58:16.008Z,98618.30
2019-04-21T01:00:46.471Z,98619.89
2019-04-21T01:03:09.310Z,98618.59
2019-04-21T01:05:42.071Z,98617.74
2019-04-21T01:08:09.525Z,98621.66
2019-04-21T01:10:35.901Z,98616.85
2019-04-21T01:13:16.474Z,98616.98
2019-04-21T01:15:48.965Z,98612.59
2019-04-21T01:18:16.541Z,98616.23
2019-04-21T01:20:28.984Z,98613.52
2019-04-21T01:23:00.136Z,98607.42
2019-04-21T01:25:37.236Z,98605.33
2019-04-21T01:28:21.397Z,98597.44
2019-04-21T01:30:54.928Z,98601.48
2019-04-21T01:33:26.261Z,98598.80
2019-04-21T01:35:55.496Z,98599.94
2019-04-21T01:38:35.689Z,98586.69
2019-04-21T01:41:08.368Z,98588.02
2019-04-21T01:43:27.850Z,98588.66
2019-04-21T01:45:59.547Z,98585.02
2019-04-21T01:48:30.676Z,98583.78
2019-04-21T01:51:01.580Z,98592.57
2019-04-21T01:53:48.336Z,98591.77
2019-04-21T01:56:51.000Z,98584.36
2019-04-21T01:59:18.862Z,98575.33
2019-04-21T02:02:02.250Z,98572.03
2019-04-21T02:04:36.703Z,98578.60
2019-04-21T02:07:03.090Z,98574.88
2019-04-21T02:09:37.481Z,98572.23
2019-04-21T02:12:12.102Z,98564.82
2019-04-21T02:14:46.327Z,98565.98
2019-04-21T02:17:14.469Z,98560.42
2019-04-21T02:19:35.973Z,98564.78
2019-04-21T02:22:11.573Z,98562.20
2019-04-21T02:24:49.687Z,98562.00
2019-04-21T02:27:21.040Z,98559.59
2019-04-21T02:29:55.866Z,98560.60
2019-04-21T02:32:41.849Z,98560.97
2019-04-21T02:35:14.623Z,98554.23
2019-04-21T02:37:38.147Z,98550.77
2019-04-21T02:42:37.713Z,98550.88
2019-04-21T02:45:09.447Z,98549.20
2019-04-21T02:47:48.592Z,98546.23
2019-04-21T02:50:21.192Z,98545.42
2019-04-21T02:52:43.939Z,98549.83
2019-04-21T02:55:07.774Z,98545.02
2019-04-21T02:57:51.480Z,98543.67
2019-04-21T03:00:27.504Z,98539.84
2019-04-21T03:11:11.116Z,98531.44
2019-04-21T03:13:41.661Z,98522.17
2019-04-21T03:16:20.136Z,98527.59
2019-04-21T03:18:56.612Z,98529.87
2019-04-21T03:21:16.283Z,98522.44
2019-04-21T03:23:54.723Z,98527.63
2019-04-21T03:28:54.634Z,98533.33
2019-04-21T03:31:39.445Z,98531.77
2019-04-21T03:38:59.139Z,98531.52
2019-04-21T03:41:32.268Z,98537.05
2019-04-21T03:43:59.204Z,98541.81
2019-04-21T03:46:32.824Z,98538.34
2019-04-21T03:49:02.313Z,98534.92
2019-04-21T03:51:47.556Z,98528.20
2019-04-21T03:54:00.053Z,98536.92
2019-04-21T04:02:01.786Z,98533.72
2019-04-21T04:04:37.196Z,98528.06
2019-04-21T04:07:31.209Z,98538.80
2019-04-21T04:15:07.159Z,98528.06
2019-04-21T04:17:36.370Z,98527.19
2019-04-21T04:20:03.933Z,98534.70
2019-04-21T04:22:41.615Z,98535.72
2019-04-21T04:25:11.496Z,98540.23
2019-04-21T04:27:53.794Z,98535.34
2019-04-21T04:30:12.562Z,98531.27
2019-04-21T04:35:34.142Z,98530.05
2019-04-21T04:40:41.483Z,98534.01
2019-04-21T04:43:19.539Z,98532.91
2019-04-21T04:45:46.672Z,98542.45
2019-04-21T04:48:11.698Z,98527.42
2019-04-21T04:53:31.154Z,98535.08
2019-04-21T04:58:37.990Z,98535.03
2019-04-21T05:01:06.275Z,98536.22
2019-04-21T05:03:37.266Z,98536.22
2019-04-21T05:06:42.114Z,98529.70
2019-04-21T05:16:40.975Z,98537.00
2019-04-21T05:19:10.643Z,98538.59
2019-04-21T05:24:13.577Z,98539.81
2019-04-21T05:26:23.394Z,98544.52
2019-04-21T05:28:56.793Z,98541.72
2019-04-21T05:32:01.473Z,98530.02
2019-04-21T05:34:30.595Z,98539.16
2019-04-21T05:37:25.983Z,98533.16
2019-04-21T05:39:52.351Z,98531.68
2019-04-21T05:42:24.982Z,98534.30
2019-04-21T05:45:16.024Z,98526.47
2019-04-21T05:47:46.306Z,98530.95
2019-04-21T05:50:11.622Z,98526.42
2019-04-21T05:52:51.409Z,98528.06
2019-04-21T05:58:02.718Z,98529.63
2019-04-21T06:00:56.051Z,98529.41
2019-04-21T06:03:09.904Z,98527.48
2019-04-21T06:05:47.318Z,98525.50
2019-04-21T06:08:13.218Z,98516.64
2019-04-21T06:10:50.856Z,98510.80
2019-04-21T06:13:19.911Z,98518.83
2019-04-21T06:15:52.903Z,98521.38
2019-04-21T06:18:21.714Z,98510.66
2019-04-21T06:20:51.809Z,98511.51
2019-04-21T06:23:25.510Z,98511.34
2019-04-21T06:28:30.542Z,98514.13
2019-04-21T06:31:09.689Z,98513.72
2019-04-21T06:33:39.417Z,98516.69
2019-04-21T06:36:32.014Z,98518.92
2019-04-21T06:41:32.585Z,98516.17
2019-04-21T06:44:01.346Z,98519.05
2019-04-21T06:46:35.492Z,98515.00
2019-04-21T06:49:03.111Z,98511.05
2019-04-21T06:51:48.273Z,98512.73
2019-04-21T06:54:23.910Z,98510.00
2019-04-21T06:56:40.930Z,98504.87
2019-04-21T06:59:09.528Z,98506.21
2019-04-21T07:01:55.275Z,98509.20
2019-04-21T07:06:59.299Z,98504.41
2019-04-21T07:09:20.761Z,98501.83
2019-04-21T07:11:44.393Z,98497.32
2019-04-21T07:14:29.372Z,98494.59
2019-04-21T07:16:57.792Z,98489.64
2019-04-21T07:19:33.336Z,98492.91
2019-04-21T07:21:55.534Z,98489.25
2019-04-21T07:27:05.754Z,98484.19
2019-04-21T07:29:34.715Z,98485.69
2019-04-21T07:32:06.511Z,98481.92
2019-04-21T07:34:36.277Z,98478.39
2019-04-21T07:37:06.597Z,98476.09
2019-04-21T07:39:35.843Z,98481.95
2019-04-21T07:41:59.297Z,98479.55
2019-04-21T07:44:32.896Z,98477.15
2019-04-21T07:47:09.740Z,98482.79
2019-04-21T07:52:35.125Z,98471.20
2019-04-21T07:57:33.174Z,98472.59
2019-04-21T08:02:46.318Z,98475.53
2019-04-21T08:05:13.577Z,98471.22
2019-04-21T08:10:10.479Z,98475.33
2019-04-21T08:12:44.758Z,98473.81
2019-04-21T08:15:24.614Z,98471.43
2019-04-21T08:17:49.127Z,98478.30
2019-04-21T08:20:18.480Z,98466.45
2019-04-21T08:22:58.938Z,98463.84
2019-04-21T08:25:27.262Z,98455.17
2019-04-21T08:30:31.997Z,98461.73
2019-04-21T08:33:12.422Z,98457.50
2019-04-21T08:38:01.055Z,98453.87
2019-04-21T08:40:37.537Z,98448.45
2019-04-21T08:43:02.523Z,98445.70
2019-04-21T08:45:45.011Z,98439.02
2019-04-21T08:48:12.096Z,98436.83
2019-04-21T08:50:37.647Z,98436.59
2019-04-21T08:53:19.810Z,98435.65
2019-04-21T08:55:58.029Z,98437.41
2019-04-21T08:58:47.811Z,98439.00
2019-04-21T09:01:18.127Z,98433.05
2019-04-21T09:03:57.035Z,98431.08
2019-04-21T09:06:32.683Z,98425.59
2019-04-21T09:08:58.313Z,98422.69
2019-04-21T09:11:33.660Z,98420.34
2019-04-21T09:14:00.995Z,98410.31
2019-04-21T09:16:30.930Z,98413.63
2019-04-21T09:18:56.964Z,98411.83
2019-04-21T09:21:42.383Z,98407.95
2019-04-21T09:24:10.302Z,98403.03
2019-04-21T09:26:34.013Z,98397.70
2019-04-21T09:29:00.710Z,98394.13
2019-04-21T09:31:26.997Z,98393.34
2019-04-21T09:33:56.985Z,98391.96
2019-04-21T09:36:33.406Z,98387.81
2019-04-21T09:39:03.811Z,98383.64
2019-04-21T09:41:28.342Z,98381.27
2019-04-21T09:44:01.358Z,98380.67
2019-04-21T09:46:34.127Z,98382.38
2019-04-21T09:49:06.498Z,98377.55
2019-04-21T09:51:34.623Z,98381.73
2019-04-21T09:54:11.598Z,98374.77
2019-04-21T09:56:45.427Z,98365.76
2019-04-21T09:59:19.346Z,98363.80
2019-04-21T10:01:55.941Z,98366.10
2019-04-21T10:04:12.015Z,98357.70
2019-04-21T10:06:43.187Z,98359.06
2019-04-21T10:09:16.388Z,98365.17
2019-04-21T10:11:45.912Z,98354.36
2019-04-21T10:14:15.714Z,98351.09
2019-04-21T10:17:10.888Z,98351.09
2019-04-21T10:19:41.874Z,98344.14
2019-04-21T10:22:12.671Z,98327.41
2019-04-21T10:24:42.680Z,98327.41
2019-04-21T10:27:13.383Z,98329.67
2019-04-21T10:29:44.814Z,98326.74
2019-04-21T10:32:13.638Z,98316.63
2019-04-21T10:34:43.282Z,98318.38
2019-04-21T10:37:13.239Z,98312.70
2019-04-21T10:39:42.511Z,98308.05
2019-04-21T10:42:13.184Z,98310.89
2019-04-21T10:44:43.245Z,98300.83
2019-04-21T10:47:14.472Z,98300.17
2019-04-21T10:49:44.861Z,98296.50
2019-04-21T10:52:42.804Z,98293.63
2019-04-21T10:55:32.118Z,98288.58
2019-04-21T10:58:04.502Z,98284.45
2019-04-21T11:00:34.756Z,98271.25
2019-04-21T11:03:22.738Z,98262.20
2019-04-21T11:05:52.644Z,98259.31
2019-04-21T11:08:28.404Z,98249.78
2019-04-21T11:10:51.966Z,98246.53
2019-04-21T11:13:21.026Z,98244.26
2019-04-21T11:15:50.848Z,98234.59
2019-04-21T11:18:19.865Z,98226.83
2019-04-21T11:20:48.931Z,98228.92
2019-04-21T11:23:19.625Z,98228.30
2019-04-21T11:25:48.216Z,98222.67
2019-04-21T11:28:18.648Z,98209.42
2019-04-21T11:30:48.763Z,98208.84
2019-04-21T11:33:17.581Z,98209.68
2019-04-21T11:35:46.280Z,98209.03
2019-04-21T11:38:23.600Z,98204.25
2019-04-21T11:40:51.732Z,98200.75
2019-04-21T11:43:22.029Z,98197.77
2019-04-21T11:45:50.970Z,98195.88
2019-04-21T11:48:26.579Z,98186.06
2019-04-21T11:50:55.292Z,98184.97
2019-04-21T11:53:25.116Z,98180.29
2019-04-21T11:55:55.143Z,98176.92
2019-04-21T11:58:26.024Z,98169.78
2019-04-21T12:00:57.905Z,98174.13
2019-04-21T12:03:27.508Z,98171.27
2019-04-21T12:05:57.328Z,98166.19
2019-04-21T12:08:33.083Z,98161.42
2019-04-21T12:10:57.647Z,98162.61
2019-04-21T12:13:27.793Z,98159.94
2019-04-21T12:15:58.943Z,98158.83
2019-04-21T12:18:29.726Z,98155.73
2019-04-21T12:20:58.185Z,98152.10
2019-04-21T12:23:27.019Z,98151.55
2019-04-21T12:25:56.966Z,98154.97
2019-04-21T12:28:26.157Z,98135.20
2019-04-21T12:30:55.939Z,98136.38
2019-04-21T12:33:40.051Z,98132.41
2019-04-21T12:36:09.497Z,98124.73
2019-04-21T12:38:44.714Z,98114.25
2019-04-21T12:41:08.763Z,98121.70
2019-04-21T12:43:39.027Z,98117.93
2019-04-21T12:46:07.803Z,98110.69
2019-04-21T12:48:38.020Z,98096.22
2019-04-21T12:51:07.868Z,98094.45
2019-04-21T12:53:36.632Z,98095.72
2019-04-21T12:56:05.491Z,98092.88
2019-04-21T12:58:35.257Z,98081.56
2019-04-21T13:01:05.050Z,98070.31
2019-04-21T13:03:34.088Z,98072.91
2019-04-21T13:06:03.484Z,98074.91
2019-04-21T13:08:41.514Z,98067.83
2019-04-21T13:11:04.289Z,98062.12
2019-04-21T13:13:33.140Z,98058.05
2019-04-21T13:16:02.971Z,98057.83
2019-04-21T13:18:33.164Z,98052.95
2019-04-21T13:21:02.710Z,98050.70
2019-04-21T13:23:34.629Z,98041.20
2019-04-21T13:26:04.909Z,98040.01
2019-04-21T13:28:34.982Z,98023.56
2019-04-21T13:31:06.470Z,98023.28
2019-04-21T13:33:37.631Z,98019.03
2019-04-21T13:36:07.827Z,98014.05
2019-04-21T13:38:50.414Z,98011.03
2019-04-21T13:41:32.589Z,98016.14
2019-04-21T13:44:11.003Z,98012.02
2019-04-21T13:46:42.986Z,98002.48
2019-04-21T13:49:13.715Z,98000.16
2019-04-21T13:51:44.087Z,98004.29
2019-04-21T13:54:14.038Z,97999.22
2019-04-21T13:56:44.864Z,97992.48
2019-04-21T13:59:16.092Z,97987.22
2019-04-21T14:01:46.095Z,97980.84
2019-04-21T14:04:17.681Z,97979.34
2019-04-21T14:06:48.022Z,97973.41
2019-04-21T14:09:19.855Z,97982.05
2019-04-21T14:11:52.484Z,97975.23
2019-04-21T14:14:21.508Z,97969.30
2019-04-21T14:16:52.059Z,97962.12
2019-04-21T14:19:21.794Z,97966.78
2019-04-21T14:21:53.102Z,97957.03
2019-04-21T14:24:22.962Z,97954.59
2019-04-21T14:26:54.346Z,97951.30
2019-04-21T14:29:25.734Z,97946.25
2019-04-21T14:31:56.041Z,97945.04
2019-04-21T14:34:26.026Z,97937.94
2019-04-21T14:36:56.902Z,97931.06
2019-04-21T14:39:28.246Z,97930.13
2019-04-21T14:41:58.177Z,97925.16
2019-04-21T14:44:31.107Z,97919.59
2019-04-21T14:47:20.878Z,97913.98
2019-04-21T14:50:24.231Z,97904.55
2019-04-21T14:53:13.933Z,97912.75
2019-04-21T14:55:45.780Z,97903.72
2019-04-21T14:58:17.095Z,97903.77
2019-04-21T15:00:57.786Z,97904.37
2019-04-21T15:03:27.921Z,97896.44
2019-04-21T15:05:57.747Z,97902.61
2019-04-21T15:08:27.081Z,97907.39
2019-04-21T15:10:56.893Z,97903.23
2019-04-21T15:13:25.982Z,97905.55
2019-04-21T15:15:56.160Z,97908.66
2019-04-21T15:18:26.417Z,97911.61
2019-04-21T15:20:55.291Z,97910.62
2019-04-21T15:23:26.550Z,97910.52
2019-04-21T15:25:54.391Z,97905.58
2019-04-21T15:28:25.391Z,97909.00
2019-04-21T15:30:54.470Z,97902.75
2019-04-21T15:33:24.417Z,97895.88
2019-04-21T15:35:53.240Z,97895.52
2019-04-21T15:38:22.285Z,97895.22
2019-04-21T15:40:56.027Z,97896.73
2019-04-21T15:43:22.398Z,97907.09
2019-04-21T15:45:52.892Z,97899.70
2019-04-21T15:48:22.328Z,97891.73
2019-04-21T15:50:52.390Z,97889.11
2019-04-21T15:53:23.468Z,97889.94
2019-04-21T15:56:05.016Z,97882.50
2019-04-21T15:58:43.818Z,97876.31
2019-04-21T16:01:24.869Z,97874.63
2019-04-21T16:03:56.963Z,97868.92
2019-04-21T16:06:25.380Z,97857.95
2019-04-21T16:08:57.479Z,97864.28
2019-04-21T16:11:25.947Z,97863.64
2019-04-21T16:13:55.502Z,97862.36
2019-04-21T16:16:27.316Z,97858.47
2019-04-21T16:18:56.242Z,97853.47
2019-04-21T16:21:26.236Z,97847.34
2019-04-21T16:23:56.389Z,97839.38
2019-04-21T16:26:26.634Z,97833.00
2019-04-21T16:28:55.646Z,97834.98
2019-04-21T16:31:24.743Z,97831.62
2019-04-21T16:33:54.724Z,97829.40
2019-04-21T16:36:23.561Z,97830.61
2019-04-21T16:38:53.465Z,97830.13
2019-04-21T16:41:22.494Z,97823.38
2019-04-21T16:43:51.472Z,97830.08
2019-04-21T16:46:23.279Z,97817.60
2019-04-21T16:48:53.475Z,97826.17
2019-04-21T16:51:22.458Z,97813.94
2019-04-21T16:54:01.942Z,97814.88
2019-04-21T16:56:35.863Z,97817.48
2019-04-21T16:59:26.412Z,97810.95
2019-04-21T17:01:56.462Z,97811.67
2019-04-21T17:04:26.501Z,97805.67
2019-04-21T17:06:55.538Z,97813.04
2019-04-21T17:09:24.405Z,97812.42
2019-04-21T17:11:58.056Z,97815.86
2019-04-21T17:14:35.553Z,97813.13
2019-04-21T17:17:17.869Z,97810.80
2019-04-21T17:19:29.872Z,97805.16
2019-04-21T17:21:55.442Z,97809.86
2019-04-21T17:24:24.361Z,97815.48
2019-04-21T17:26:55.251Z,97809.73
2019-04-21T17:29:24.933Z,97809.22
2019-04-21T17:31:55.205Z,97808.66
2019-04-21T17:34:28.261Z,97813.41
2019-04-21T17:36:55.395Z,97819.03
2019-04-21T17:39:24.924Z,97813.11
2019-04-21T17:42:05.338Z,97819.52
2019-04-21T17:44:25.580Z,97815.07
2019-04-21T17:47:01.414Z,97813.92
2019-04-21T17:49:26.166Z,97816.70
2019-04-21T17:52:19.461Z,97820.27
2019-04-21T17:54:50.722Z,97826.39
2019-04-21T17:57:36.267Z,97829.36
2019-04-21T18:00:11.521Z,97831.00
2019-04-21T18:02:41.420Z,97834.00
2019-04-21T18:05:19.472Z,97829.05
2019-04-21T18:07:46.437Z,97832.04
2019-04-21T18:10:07.742Z,97839.00
2019-04-21T18:12:36.064Z,97838.78
2019-04-21T18:15:02.037Z,97842.47
2019-04-21T18:17:24.319Z,97841.92
2019-04-21T18:19:55.269Z,97847.48
2019-04-21T18:22:47.479Z,97851.20
2019-04-21T18:25:28.164Z,97848.20
2019-04-21T18:27:46.786Z,97848.89
2019-04-21T18:30:34.083Z,97847.94
2019-04-21T18:33:05.858Z,97847.78
2019-04-21T18:35:55.081Z,97847.03
2019-04-21T18:38:53.092Z,97855.17
2019-04-21T18:41:01.417Z,97855.41
2019-04-21T18:43:56.476Z,97859.00
2019-04-21T18:46:35.650Z,97855.03
2019-04-21T18:48:51.632Z,97850.89
2019-04-21T18:51:37.127Z,97852.08
2019-04-21T18:54:26.910Z,97850.52
2019-04-21T18:56:37.038Z,97859.97
2019-04-21T18:59:06.869Z,97858.17
2019-04-21T19:01:38.497Z,97862.70
2019-04-21T19:04:16.849Z,97859.75
2019-04-21T19:06:54.503Z,97862.47
2019-04-21T19:09:35.589Z,97862.45
2019-04-21T19:12:00.831Z,97858.67
2019-04-21T19:14:46.488Z,97863.97
2019-04-21T19:17:30.413Z,97865.50
2019-04-21T19:22:09.139Z,97862.88
2019-04-21T19:24:41.260Z,97866.93
2019-04-21T19:29:52.160Z,97864.08
2019-04-21T19:32:21.253Z,97868.91
2019-04-21T19:34:35.994Z,97874.36
2019-04-21T19:37:08.922Z,97875.06
2019-04-21T19:39:43.165Z,97880.10
2019-04-21T19:42:16.919Z,97886.31
2019-04-21T19:44:52.180Z,97889.95
2019-04-21T19:47:28.261Z,97882.54
2019-04-21T19:50:04.664Z,97888.16
2019-04-21T19:52:26.634Z,97882.83
2019-04-21T19:54:46.776Z,97889.64
2019-04-21T19:57:14.738Z,97888.41
2019-04-21T19:59:48.568Z,97882.37
2019-04-21T20:02:16.473Z,97894.83
2019-04-21T20:04:54.415Z,97886.46
2019-04-21T20:07:31.642Z,97883.23
2019-04-21T20:10:15.484Z,97886.45
2019-04-21T20:12:42.653Z,97883.21
2019-04-21T20:15:20.512Z,97888.00
2019-04-21T20:17:42.244Z,97884.77
2019-04-21T20:19:56.223Z,97882.85
2019-04-21T20:22:32.629Z,97882.56
2019-04-21T20:25:04.934Z,97883.80
2019-04-21T20:27:39.619Z,97884.59
2019-04-21T20:30:21.938Z,97880.01
2019-04-21T20:33:19.795Z,97887.72
2019-04-21T20:35:35.016Z,97888.25
2019-04-21T20:37:55.082Z,97878.34
2019-04-21T20:40:19.717Z,97877.17
2019-04-21T20:42:50.970Z,97878.06
2019-04-21T20:47:48.771Z,97874.92
2019-04-21T20:50:29.861Z,97879.56
2019-04-21T20:53:06.126Z,97880.42
2019-04-21T20:55:26.442Z,97880.36
2019-04-21T20:58:01.483Z,97872.93
2019-04-21T21:00:39.253Z,97867.70
2019-04-21T21:03:14.520Z,97865.25
2019-04-21T21:05:37.360Z,97872.45
2019-04-21T21:08:20.009Z,97869.14
2019-04-21T21:10:38.584Z,97866.41
2019-04-21T21:15:52.560Z,97873.45
2019-04-21T21:18:37.968Z,97874.45
2019-04-21T21:20:57.094Z,97872.59
2019-04-21T21:23:22.213Z,97878.09
2019-04-21T21:25:57.195Z,97878.17
2019-04-21T21:28:22.609Z,97878.52
2019-04-21T21:30:55.633Z,97877.92
2019-04-21T21:33:25.984Z,97874.44
2019-04-21T21:36:06.675Z,97871.42
2019-04-21T21:38:36.317Z,97881.63
2019-04-21T21:40:59.894Z,97874.20
2019-04-21T21:43:23.242Z,97875.86
2019-04-21T21:45:57.341Z,97876.90
2019-04-21T21:48:37.968Z,97872.23
2019-04-21T21:51:04.163Z,97870.78
2019-04-21T21:53:28.647Z,97872.05
2019-04-21T21:55:58.418Z,97875.47
2019-04-21T21:58:33.690Z,97871.54
2019-04-21T22:01:02.973Z,97864.55
2019-04-21T22:03:38.963Z,97870.06
2019-04-21T22:06:09.636Z,97866.94
2019-04-21T22:08:36.538Z,97861.28
2019-04-21T22:11:07.196Z,97861.77
2019-04-21T22:13:48.881Z,97851.43
2019-04-21T22:16:13.991Z,97863.27
2019-04-21T22:19:04.473Z,97853.94
2019-04-21T22:21:34.727Z,97859.45
2019-04-21T22:23:53.461Z,97856.67
2019-04-21T22:26:15.573Z,97853.84
2019-04-21T22:28:45.795Z,97851.28
2019-04-21T22:31:22.439Z,97860.83
2019-04-21T22:33:52.723Z,97854.14
2019-04-21T22:36:33.120Z,97857.70
2019-04-21T22:39:09.248Z,97850.47
2019-04-21T22:41:30.980Z,97854.13
2019-04-21T22:43:57.041Z,97856.91
2019-04-21T22:46:26.342Z,97850.34
2019-04-21T22:49:01.521Z,97850.52
2019-04-21T22:51:37.088Z,97852.35
2019-04-21T22:54:01.457Z,97843.89
2019-04-21T22:56:33.603Z,97846.08
2019-04-21T22:59:12.189Z,97849.02
2019-04-21T23:01:41.080Z,97846.33
2019-04-21T23:04:08.433Z,97845.53
2019-04-21T23:06:39.607Z,97844.64
2019-04-21T23:09:11.053Z,97848.41
2019-04-21T23:11:45.629Z,97850.58
2019-04-21T23:14:15.372Z,97844.56
2019-04-21T23:16:45.975Z,97849.22
2019-04-21T23:19:32.140Z,97844.02
2019-04-21T23:22:03.568Z,97847.42
2019-04-21T23:24:40.017Z,97845.61
2019-04-21T23:27:04.812Z,97838.14
2019-04-21T23:29:47.573Z,97835.11
2019-04-21T23:32:10.237Z,97832.75
2019-04-21T23:34:30.629Z,97831.25
2019-04-21T23:37:06.736Z,97836.24
2019-04-21T23:39:32.793Z,97828.20
2019-04-21T23:42:03.154Z,97823.56
2019-04-21T23:44:41.478Z,97819.69
2019-04-21T23:47:08.591Z,97825.94
2019-04-21T23:49:49.600Z,97818.43
2019-04-21T23:52:10.990Z,97821.72
2019-04-21T23:54:38.743Z,97817.98
2019-04-21T23:57:15.064Z,97818.66
2019-04-21T23:59:46.274Z,97811.98
